Time;durP1;ratioP1;P1;durP2;ratioP2;P2;SDS_P1;SDS_P2;PMS_P1;PMS_P2;Temp;Humidity;BMP_temperature;BMP_pressure;BME280_temperature;BME280_humidity;BME280_pressure;Samples;Min_cycle;Max_cycle;Signal;HPM_P1;HPM_P2
2023/05/09 00:00:39;;;;;;;7.53;6.55;;;17.50;99.90;;;;;;4957650;28;20191;-66
2023/05/09 00:03:07;;;;;;;7.68;6.85;;;17.50;99.90;;;;;;4970717;28;20207;-66
2023/05/09 00:05:35;;;;;;;8.05;7.25;;;17.50;99.90;;;;;;4963445;28;20236;-66
2023/05/09 00:08:02;;;;;;;7.82;6.28;;;17.50;99.90;;;;;;4953947;29;20188;-66
2023/05/09 00:10:28;;;;;;;7.78;6.97;;;17.50;99.90;;;;;;4964495;28;20268;-66
2023/05/09 00:12:57;;;;;;;7.57;6.85;;;17.50;99.90;;;;;;4968950;28;20264;-66
2023/05/09 00:15:25;;;;;;;7.90;6.90;;;17.50;99.90;;;;;;4956661;28;20238;-66
2023/05/09 00:17:51;;;;;;;7.63;6.85;;;17.50;99.90;;;;;;4969228;28;20209;-63
2023/05/09 00:20:17;;;;;;;7.70;6.80;;;17.50;99.90;;;;;;4953584;29;20189;-61
2023/05/09 00:22:43;;;;;;;7.25;6.55;;;17.50;99.90;;;;;;4951888;28;20197;-67
2023/05/09 00:25:10;;;;;;;7.15;6.45;;;17.50;99.90;;;;;;4969223;28;21456;-67
2023/05/09 00:27:38;;;;;;;7.72;7.03;;;17.50;99.90;;;;;;4969347;28;20208;-67
2023/05/09 00:30:07;;;;;;;7.93;7.00;;;17.40;99.90;;;;;;4972223;28;20366;-65
2023/05/09 00:32:35;;;;;;;7.28;6.57;;;17.40;99.90;;;;;;4976925;28;20219;-67
2023/05/09 00:35:01;;;;;;;7.70;6.70;;;17.40;99.90;;;;;;4968042;28;20184;-62
2023/05/09 00:37:30;;;;;;;7.95;7.15;;;17.40;99.90;;;;;;4956573;29;20216;-66
2023/05/09 00:39:56;;;;;;;9.38;7.20;;;17.30;99.90;;;;;;4969743;28;20169;-66
2023/05/09 00:42:24;;;;;;;7.82;6.85;;;17.30;99.90;;;;;;4973962;28;20205;-67
2023/05/09 00:44:49;;;;;;;7.95;7.15;;;17.30;99.90;;;;;;4973467;28;20177;-67
2023/05/09 00:47:17;;;;;;;7.95;7.13;;;17.30;99.90;;;;;;4974624;28;20177;-65
2023/05/09 00:49:48;;;;;;;8.75;7.85;;;17.30;99.90;;;;;;4957768;28;20201;-65
2023/05/09 00:52:14;;;;;;;9.23;7.82;;;17.20;99.90;;;;;;4962154;28;20169;-65
2023/05/09 00:54:42;;;;;;;8.25;7.45;;;17.20;99.90;;;;;;4955372;29;20185;-65
2023/05/09 00:57:10;;;;;;;8.48;7.25;;;17.20;99.90;;;;;;4956027;28;20202;-67
2023/05/09 00:59:38;;;;;;;9.18;8.15;;;17.20;99.90;;;;;;4974417;28;20179;-68
2023/05/09 01:02:04;;;;;;;9.57;7.78;;;17.20;99.90;;;;;;4969974;28;20216;-67
2023/05/09 01:04:29;;;;;;;9.25;7.78;;;17.10;99.90;;;;;;4969160;28;20177;-61
2023/05/09 01:07:30;;;;;;;9.05;8.13;;;17.10;99.90;;;;;;4962664;28;20182;-64
2023/05/09 01:10:06;;;;;;;9.02;8.02;;;17.20;99.90;;;;;;4969123;28;20433;-65
2023/05/09 01:13:04;;;;;;;9.23;8.25;;;17.20;99.90;;;;;;4967345;28;20239;-65
2023/05/09 01:15:39;;;;;;;10.05;8.38;;;17.20;99.90;;;;;;4965096;28;20211;-61
2023/05/09 01:18:20;;;;;;;10.30;9.15;;;17.20;99.90;;;;;;4953169;29;20231;-63
2023/05/09 01:20:52;;;;;;;11.93;8.80;;;17.20;99.90;;;;;;4949288;28;20172;-64
2023/05/09 01:23:45;;;;;;;10.50;9.40;;;17.30;99.90;;;;;;4956110;28;20191;-63
2023/05/09 01:26:45;;;;;;;10.60;9.40;;;17.30;99.90;;;;;;4967551;28;20219;-64
2023/05/09 01:29:43;;;;;;;10.65;9.50;;;17.40;99.90;;;;;;4967152;28;20226;-64
2023/05/09 01:32:16;;;;;;;10.70;9.60;;;17.40;99.90;;;;;;4966513;28;20185;-66
2023/05/09 01:34:46;;;;;;;12.50;10.70;;;17.40;99.90;;;;;;4968641;28;20172;-63
2023/05/09 01:37:15;;;;;;;10.77;9.52;;;17.40;99.90;;;;;;4969418;28;20204;-66
2023/05/09 01:39:46;;;;;;;10.95;9.80;;;17.40;99.90;;;;;;4967964;28;20185;-66
2023/05/09 01:42:14;;;;;;;10.27;9.25;;;17.50;99.90;;;;;;4967288;28;20232;-62
2023/05/09 01:44:45;;;;;;;11.65;9.98;;;17.40;99.90;;;;;;4968570;28;20212;-65
2023/05/09 01:47:11;;;;;;;12.43;10.65;;;17.50;99.90;;;;;;4950113;29;20208;-65
2023/05/09 01:49:40;;;;;;;10.68;9.63;;;17.50;99.90;;;;;;4965441;28;20264;-65
2023/05/09 01:52:16;;;;;;;11.07;9.60;;;17.50;99.90;;;;;;4966924;28;20189;-65
2023/05/09 01:54:46;;;;;;;11.02;9.68;;;17.50;99.90;;;;;;4946105;28;20233;-65
2023/05/09 01:57:17;;;;;;;10.43;9.32;;;17.50;99.90;;;;;;4956776;28;20212;-66
2023/05/09 01:59:44;;;;;;;10.80;9.70;;;17.60;99.90;;;;;;4951790;29;20188;-66
2023/05/09 02:02:10;;;;;;;11.38;10.18;;;17.50;99.90;;;;;;4947619;29;20176;-66
2023/05/09 02:04:40;;;;;;;11.25;10.07;;;17.60;99.90;;;;;;4952039;28;20213;-61
2023/05/09 02:07:08;;;;;;;12.90;9.95;;;17.60;99.90;;;;;;4967744;28;20252;-65
2023/05/09 02:09:34;;;;;;;13.15;11.25;;;17.60;99.90;;;;;;4951614;28;20180;-59
2023/05/09 02:12:03;;;;;;;12.23;10.95;;;17.60;99.90;;;;;;4965794;28;20181;-63
2023/05/09 02:14:29;;;;;;;11.95;10.57;;;17.60;99.90;;;;;;4968105;28;20263;-63
2023/05/09 02:16:55;;;;;;;11.35;9.93;;;17.60;99.90;;;;;;4968831;28;20300;-66
2023/05/09 02:19:22;;;;;;;13.85;10.98;;;17.60;99.90;;;;;;4968210;28;20252;-62
2023/05/09 02:21:53;;;;;;;12.43;10.25;;;17.60;99.90;;;;;;4948640;29;20178;-66
2023/05/09 02:24:18;;;;;;;11.18;9.98;;;17.60;99.90;;;;;;4966902;28;20200;-66
2023/05/09 02:26:49;;;;;;;12.25;10.95;;;17.60;99.90;;;;;;4957587;28;20191;-67
2023/05/09 02:29:18;;;;;;;13.10;11.63;;;17.60;99.90;;;;;;4971756;28;20188;-65
2023/05/09 02:31:45;;;;;;;12.00;10.75;;;17.60;99.90;;;;;;4957521;28;20195;-65
2023/05/09 02:34:12;;;;;;;13.48;10.68;;;17.60;99.90;;;;;;4968069;28;20403;-66
2023/05/09 02:36:38;;;;;;;12.57;11.27;;;17.60;99.90;;;;;;4972255;28;20820;-66
2023/05/09 02:39:06;;;;;;;13.10;11.65;;;17.50;99.90;;;;;;4955685;29;20211;-65
2023/05/09 02:41:32;;;;;;;12.38;11.07;;;17.50;99.90;;;;;;4964635;28;20173;-66
2023/05/09 02:43:58;;;;;;;12.80;10.73;;;17.50;99.90;;;;;;4972382;28;20203;-67
2023/05/09 02:46:23;;;;;;;11.27;10.07;;;17.50;99.90;;;;;;4972169;28;20188;-66
2023/05/09 02:48:51;;;;;;;11.43;10.27;;;17.50;99.90;;;;;;4971519;28;20227;-66
2023/05/09 02:51:17;;;;;;;13.38;11.18;;;17.50;99.90;;;;;;4969783;28;20218;-66
2023/05/09 02:53:42;;;;;;;12.32;11.02;;;17.60;99.90;;;;;;4952029;29;20227;-66
2023/05/09 02:56:10;;;;;;;12.50;10.50;;;17.50;99.90;;;;;;4970865;28;20236;-66
2023/05/09 02:58:38;;;;;;;11.88;10.07;;;17.50;99.90;;;;;;4971951;28;20279;-61
2023/05/09 03:01:04;;;;;;;11.95;10.65;;;17.50;99.90;;;;;;4956263;29;20180;-65
2023/05/09 03:03:33;;;;;;;11.25;9.80;;;17.60;99.90;;;;;;4971608;28;20271;-66
2023/05/09 03:05:59;;;;;;;11.88;10.13;;;17.60;99.90;;;;;;4974138;28;20181;-66
2023/05/09 03:08:24;;;;;;;12.80;11.45;;;17.60;99.90;;;;;;4953653;29;20199;-65
2023/05/09 03:10:50;;;;;;;11.88;10.25;;;17.60;99.90;;;;;;4970956;28;20350;-66
2023/05/09 03:13:16;;;;;;;12.10;10.70;;;17.60;99.90;;;;;;4972358;28;20188;-65
2023/05/09 03:15:41;;;;;;;13.82;10.93;;;17.60;99.90;;;;;;4969587;28;20259;-65
2023/05/09 03:18:10;;;;;;;12.45;10.45;;;17.60;99.90;;;;;;4969279;28;20281;-65
2023/05/09 03:20:38;;;;;;;11.63;9.75;;;17.60;99.90;;;;;;4961577;28;20180;-65
2023/05/09 03:23:04;;;;;;;12.85;10.60;;;17.60;99.90;;;;;;4957845;28;20192;-65
2023/05/09 03:25:30;;;;;;;11.88;10.60;;;17.60;99.90;;;;;;4970322;28;20196;-65
2023/05/09 03:27:55;;;;;;;11.65;10.13;;;17.60;99.90;;;;;;4955442;29;20185;-62
2023/05/09 03:30:26;;;;;;;11.20;10.00;;;17.60;99.90;;;;;;4970831;28;20216;-65
2023/05/09 03:32:54;;;;;;;12.48;11.07;;;17.60;99.90;;;;;;4972383;28;20298;-65
2023/05/09 03:35:22;;;;;;;11.93;10.73;;;17.60;99.90;;;;;;4972005;28;20272;-66
2023/05/09 03:37:50;;;;;;;10.93;9.82;;;17.60;99.90;;;;;;4968714;28;20288;-63
2023/05/09 03:40:15;;;;;;;12.35;10.73;;;17.60;99.90;;;;;;4968131;28;20178;-64
2023/05/09 03:42:46;;;;;;;12.02;10.73;;;17.60;99.90;;;;;;4955529;28;20188;-66
2023/05/09 03:45:14;;;;;;;11.07;9.85;;;17.60;99.90;;;;;;4970240;28;20192;-63
2023/05/09 03:47:42;;;;;;;12.40;10.20;;;17.60;99.90;;;;;;4967948;28;20252;-63
2023/05/09 03:50:08;;;;;;;10.98;9.48;;;17.60;99.90;;;;;;4954376;28;20200;-66
2023/05/09 03:52:36;;;;;;;11.30;10.05;;;17.60;99.90;;;;;;4959366;28;20185;-64
2023/05/09 03:55:02;;;;;;;11.40;10.05;;;17.60;99.90;;;;;;4954282;28;20177;-65
2023/05/09 03:57:27;;;;;;;11.77;10.40;;;17.60;99.90;;;;;;4951810;28;20211;-66
2023/05/09 03:59:53;;;;;;;12.38;10.15;;;17.60;99.90;;;;;;4947099;29;20212;-65
2023/05/09 04:02:18;;;;;;;13.43;10.48;;;17.60;99.90;;;;;;4966447;28;20235;-65
2023/05/09 04:04:46;;;;;;;12.43;10.05;;;17.50;99.90;;;;;;4967896;28;20197;-65
2023/05/09 04:07:11;;;;;;;11.05;9.75;;;17.50;99.90;;;;;;4969318;28;20247;-61
2023/05/09 04:09:37;;;;;;;13.65;11.00;;;17.60;99.90;;;;;;4966301;28;20189;-65
2023/05/09 04:12:05;;;;;;;11.80;10.00;;;17.60;99.90;;;;;;4968547;28;20188;-64
2023/05/09 04:14:31;;;;;;;13.13;9.48;;;17.50;99.90;;;;;;4966984;28;20480;-66
2023/05/09 04:16:57;;;;;;;11.25;10.05;;;17.50;99.90;;;;;;4957814;28;20320;-66
2023/05/09 04:19:22;;;;;;;11.23;9.98;;;17.60;99.90;;;;;;4952255;29;20188;-65
2023/05/09 04:21:48;;;;;;;12.00;10.10;;;17.60;99.90;;;;;;4966822;28;20180;-65
2023/05/09 04:24:13;;;;;;;12.90;10.50;;;17.60;99.90;;;;;;4955834;28;20212;-64
2023/05/09 04:26:44;;;;;;;13.13;10.32;;;17.60;99.90;;;;;;4970083;28;20254;-66
2023/05/09 04:29:10;;;;;;;12.10;10.35;;;17.50;99.90;;;;;;4971065;28;20236;-66
2023/05/09 04:31:36;;;;;;;12.50;10.20;;;17.50;99.90;;;;;;4972970;28;20224;-64
2023/05/09 04:34:02;;;;;;;13.32;11.18;;;17.50;99.90;;;;;;4973867;28;20215;-66
2023/05/09 04:36:30;;;;;;;11.70;10.50;;;17.50;99.90;;;;;;4958107;29;20177;-66
2023/05/09 04:38:56;;;;;;;12.57;10.60;;;17.50;99.90;;;;;;4972076;28;20205;-66
2023/05/09 04:41:22;;;;;;;13.02;11.27;;;17.50;99.90;;;;;;4958293;29;20187;-66
2023/05/09 04:43:48;;;;;;;13.13;11.73;;;17.50;99.90;;;;;;4957953;29;20264;-66
2023/05/09 04:46:14;;;;;;;12.93;11.07;;;17.50;99.90;;;;;;4972272;28;20189;-66
2023/05/09 04:48:41;;;;;;;12.70;11.10;;;17.50;99.90;;;;;;4973714;28;20188;-66
2023/05/09 04:51:07;;;;;;;12.30;11.02;;;17.40;99.90;;;;;;4956644;28;20339;-65
2023/05/09 04:53:33;;;;;;;13.02;10.52;;;17.40;99.90;;;;;;4957545;29;20247;-66
2023/05/09 04:56:03;;;;;;;11.57;10.38;;;17.40;99.90;;;;;;4974360;28;20180;-66
2023/05/09 04:58:29;;;;;;;12.38;11.07;;;17.50;99.90;;;;;;4972842;28;20204;-64
2023/05/09 05:00:57;;;;;;;11.82;10.50;;;17.50;99.90;;;;;;4970169;28;20202;-66
2023/05/09 05:03:25;;;;;;;13.30;11.45;;;17.50;99.90;;;;;;4958846;28;20299;-61
2023/05/09 05:05:53;;;;;;;13.32;11.30;;;17.50;99.90;;;;;;4968266;28;20181;-66
2023/05/09 05:08:24;;;;;;;13.55;11.52;;;17.60;99.90;;;;;;4955756;28;20177;-62
2023/05/09 05:10:50;;;;;;;12.93;11.52;;;17.60;99.90;;;;;;4951872;28;20297;-65
2023/05/09 05:13:16;;;;;;;14.60;11.27;;;17.50;99.90;;;;;;4956678;28;20244;-66
2023/05/09 05:15:42;;;;;;;11.75;10.50;;;17.60;99.90;;;;;;4960095;28;20208;-66
2023/05/09 05:18:07;;;;;;;13.82;11.13;;;17.60;99.90;;;;;;4956467;28;20276;-67
2023/05/09 05:20:35;;;;;;;13.32;10.93;;;17.60;99.90;;;;;;4967169;28;20192;-66
2023/05/09 05:23:01;;;;;;;13.18;11.05;;;17.60;99.90;;;;;;4969121;28;20200;-67
2023/05/09 05:25:27;;;;;;;16.25;13.00;;;17.60;99.90;;;;;;4955514;28;20244;-67
2023/05/09 05:27:54;;;;;;;15.05;11.90;;;17.70;99.90;;;;;;4954886;28;20188;-66
2023/05/09 05:30:20;;;;;;;13.98;11.05;;;17.70;99.90;;;;;;4952285;29;20240;-68
2023/05/09 05:32:48;;;;;;;13.55;11.43;;;17.70;99.90;;;;;;4966977;28;20185;-65
2023/05/09 05:35:13;;;;;;;12.88;11.18;;;17.70;99.90;;;;;;4951818;28;20180;-67
2023/05/09 05:37:40;;;;;;;13.77;11.95;;;17.70;99.90;;;;;;4967171;28;20215;-66
2023/05/09 05:40:09;;;;;;;13.77;11.88;;;17.70;99.90;;;;;;4949549;29;20198;-66
2023/05/09 05:42:37;;;;;;;13.68;11.57;;;17.70;99.90;;;;;;4953956;28;20200;-65
2023/05/09 05:45:03;;;;;;;15.02;11.93;;;17.70;99.90;;;;;;4951767;28;20201;-66
2023/05/09 05:47:36;;;;;;;16.40;12.38;;;17.80;99.90;;;;;;4952856;28;20189;-67
2023/05/09 05:50:07;;;;;;;14.23;12.57;;;17.80;99.90;;;;;;4963740;28;20211;-65
2023/05/09 05:52:35;;;;;;;13.75;11.93;;;17.80;99.90;;;;;;4950201;28;20375;-66
2023/05/09 05:55:00;;;;;;;13.60;11.77;;;17.80;99.90;;;;;;4966205;28;21492;-66
2023/05/09 05:57:31;;;;;;;11.95;10.70;;;17.80;99.90;;;;;;4956951;28;20197;-66
2023/05/09 05:59:59;;;;;;;12.68;10.60;;;17.90;99.90;;;;;;4967195;28;20199;-65
2023/05/09 06:02:24;;;;;;;12.98;11.55;;;17.90;99.90;;;;;;4968322;28;20173;-66
2023/05/09 06:04:52;;;;;;;15.18;11.95;;;17.90;99.90;;;;;;4950327;29;20209;-66
2023/05/09 06:07:18;;;;;;;12.77;11.27;;;18.00;99.90;;;;;;4965387;28;20205;-63
2023/05/09 06:09:45;;;;;;;13.60;11.60;;;18.00;99.90;;;;;;4954982;28;20241;-66
2023/05/09 06:12:15;;;;;;;12.80;11.20;;;18.00;99.90;;;;;;4970860;28;20248;-67
2023/05/09 06:14:43;;;;;;;12.18;10.88;;;18.00;99.90;;;;;;4979828;28;20188;-67
2023/05/09 06:17:09;;;;;;;12.65;10.93;;;18.10;99.90;;;;;;4964299;28;20266;-67
2023/05/09 06:19:36;;;;;;;13.48;10.82;;;18.10;99.90;;;;;;4970938;28;20173;-65
2023/05/09 06:22:01;;;;;;;12.70;10.75;;;18.10;99.90;;;;;;4952904;28;20204;-61
2023/05/09 06:24:27;;;;;;;11.27;9.98;;;18.20;99.90;;;;;;4969823;28;20243;-66
2023/05/09 06:26:53;;;;;;;12.30;10.52;;;18.20;99.90;;;;;;4955992;28;20173;-66
2023/05/09 06:29:20;;;;;;;11.18;10.00;;;18.30;99.90;;;;;;4972222;28;20176;-67
2023/05/09 06:31:46;;;;;;;11.10;9.38;;;18.30;99.90;;;;;;4954950;28;20189;-66
2023/05/09 06:34:12;;;;;;;11.20;10.00;;;18.30;99.90;;;;;;4953010;28;20173;-67
2023/05/09 06:36:40;;;;;;;10.65;9.43;;;18.40;99.90;;;;;;4972140;28;20251;-67
2023/05/09 06:39:06;;;;;;;11.10;9.15;;;18.50;99.90;;;;;;4972060;28;20188;-65
2023/05/09 06:41:31;;;;;;;10.25;8.95;;;18.50;99.90;;;;;;4972013;28;20176;-66
2023/05/09 06:44:01;;;;;;;9.63;8.68;;;18.60;99.90;;;;;;4972031;28;20216;-66
2023/05/09 06:46:27;;;;;;;10.57;9.48;;;18.60;99.90;;;;;;4972304;28;20180;-67
2023/05/09 06:48:55;;;;;;;8.93;8.02;;;18.70;99.90;;;;;;4964343;28;20514;-69
2023/05/09 06:51:22;;;;;;;9.82;8.82;;;18.70;99.90;;;;;;4971979;28;20216;-67
2023/05/09 06:53:48;;;;;;;10.73;8.93;;;18.80;99.90;;;;;;4971734;28;20188;-66
2023/05/09 06:56:15;;;;;;;9.35;8.40;;;18.80;99.90;;;;;;4973721;28;20240;-65
2023/05/09 06:58:42;;;;;;;9.70;8.18;;;18.80;99.90;;;;;;4976017;28;20559;-66
2023/05/09 07:01:10;;;;;;;9.15;8.25;;;18.90;99.90;;;;;;4971598;28;20358;-60
2023/05/09 07:03:38;;;;;;;9.38;8.38;;;18.90;99.90;;;;;;4954367;29;20181;-63
2023/05/09 07:06:11;;;;;;;8.05;7.25;;;18.90;99.90;;;;;;4971925;28;20169;-66
2023/05/09 07:08:37;;;;;;;7.90;7.10;;;19.00;99.90;;;;;;4972091;28;20176;-66
2023/05/09 07:11:02;;;;;;;7.20;6.50;;;19.00;99.90;;;;;;4957099;28;20217;-66
2023/05/09 07:13:28;;;;;;;6.28;5.63;;;19.00;99.90;;;;;;4957899;28;20200;-63
2023/05/09 07:15:53;;;;;;;6.05;5.45;;;19.10;99.90;;;;;;4955992;29;20192;-65
2023/05/09 07:18:19;;;;;;;6.00;5.30;;;19.10;99.90;;;;;;4954925;28;20205;-66
2023/05/09 07:20:45;;;;;;;5.70;5.13;;;19.20;99.90;;;;;;4967464;28;20170;-66
2023/05/09 07:23:13;;;;;;;5.85;5.20;;;19.20;99.90;;;;;;4959311;28;20185;-63
2023/05/09 07:25:38;;;;;;;6.55;4.55;;;19.30;99.90;;;;;;4969916;28;20209;-66
2023/05/09 07:28:07;;;;;;;5.00;4.45;;;19.40;99.90;;;;;;4956759;28;20185;-67
2023/05/09 07:30:35;;;;;;;5.50;4.13;;;19.40;99.90;;;;;;4963334;28;20203;-67
2023/05/09 07:33:00;;;;;;;4.60;4.07;;;19.50;99.90;;;;;;4972652;28;20225;-67
2023/05/09 07:35:28;;;;;;;4.30;3.88;;;19.60;99.90;;;;;;4959420;28;20216;-66
2023/05/09 07:37:54;;;;;;;5.35;3.70;;;19.60;99.90;;;;;;4955964;28;20192;-62
2023/05/09 07:40:21;;;;;;;4.47;4.07;;;19.60;99.90;;;;;;4956866;28;20191;-65
2023/05/09 07:42:52;;;;;;;5.07;3.58;;;19.60;99.90;;;;;;4955819;29;20373;-66
2023/05/09 07:45:20;;;;;;;4.00;3.40;;;19.60;99.90;;;;;;4967954;28;20196;-66
2023/05/09 07:47:45;;;;;;;4.50;3.50;;;19.60;99.90;;;;;;4965861;28;20181;-65
2023/05/09 07:50:11;;;;;;;3.75;3.45;;;19.70;99.90;;;;;;4965915;28;20184;-64
2023/05/09 07:52:39;;;;;;;4.40;3.65;;;19.70;99.90;;;;;;4954814;28;20207;-65
2023/05/09 07:55:05;;;;;;;3.95;3.10;;;19.70;99.90;;;;;;4970476;28;20180;-68
2023/05/09 07:57:33;;;;;;;3.80;3.40;;;19.70;99.90;;;;;;4970946;28;20205;-67
2023/05/09 07:59:58;;;;;;;4.00;2.80;;;19.70;99.90;;;;;;4969137;28;20188;-66
2023/05/09 08:02:24;;;;;;;3.85;2.60;;;19.70;99.90;;;;;;4969626;28;20177;-66
2023/05/09 08:04:50;;;;;;;3.97;3.13;;;19.80;99.90;;;;;;4970452;28;20187;-66
2023/05/09 08:07:16;;;;;;;3.08;2.80;;;19.80;99.90;;;;;;4970391;28;20196;-65
2023/05/09 08:09:44;;;;;;;3.15;2.85;;;19.90;99.90;;;;;;4970288;28;20194;-66
2023/05/09 08:12:12;;;;;;;3.40;2.88;;;19.90;99.90;;;;;;4952715;28;20183;-66
2023/05/09 08:14:40;;;;;;;4.47;3.20;;;20.00;99.90;;;;;;4966820;28;20177;-65
2023/05/09 08:17:08;;;;;;;3.33;2.80;;;20.00;99.90;;;;;;4954204;28;20204;-62
2023/05/09 08:19:34;;;;;;;3.15;2.85;;;20.10;99.90;;;;;;4951496;29;20208;-66
2023/05/09 08:22:02;;;;;;;2.70;2.35;;;20.10;99.90;;;;;;4952870;28;20181;-66
2023/05/09 08:24:28;;;;;;;3.03;2.70;;;20.10;99.90;;;;;;4952347;28;20205;-66
2023/05/09 08:26:58;;;;;;;3.05;2.72;;;20.20;99.90;;;;;;4968775;28;20209;-66
2023/05/09 08:29:24;;;;;;;3.35;2.53;;;20.30;99.90;;;;;;4974025;28;20188;-67
2023/05/09 08:31:52;;;;;;;2.35;2.15;;;20.30;99.90;;;;;;4974052;28;20173;-67
2023/05/09 08:34:19;;;;;;;2.17;1.98;;;20.40;99.90;;;;;;4974278;28;20263;-65
2023/05/09 08:36:45;;;;;;;2.75;2.22;;;20.40;99.90;;;;;;4974365;28;20248;-66
2023/05/09 08:39:11;;;;;;;2.17;1.92;;;20.50;99.90;;;;;;4973614;28;20201;-67
2023/05/09 08:41:41;;;;;;;3.10;1.95;;;20.50;99.90;;;;;;4973968;28;20331;-65
2023/05/09 08:44:07;;;;;;;2.35;1.73;;;20.50;99.90;;;;;;4973870;28;20235;-66
2023/05/09 08:46:40;;;;;;;2.08;1.88;;;20.60;99.90;;;;;;4973544;28;20201;-66
2023/05/09 08:49:09;;;;;;;2.00;1.80;;;20.60;99.90;;;;;;4973059;28;20184;-67
2023/05/09 08:51:35;;;;;;;2.45;1.42;;;20.60;99.90;;;;;;4957018;29;20173;-67
2023/05/09 08:54:04;;;;;;;2.00;1.80;;;20.70;99.90;;;;;;4973705;28;20236;-67
2023/05/09 08:56:30;;;;;;;2.28;1.73;;;20.80;99.90;;;;;;4974015;28;20191;-67
2023/05/09 08:58:57;;;;;;;1.80;1.70;;;20.80;99.90;;;;;;4973906;28;20207;-67
2023/05/09 09:01:28;;;;;;;2.55;1.73;;;20.90;99.90;;;;;;4970076;28;20200;-65
2023/05/09 09:03:55;;;;;;;1.90;1.70;;;20.90;99.90;;;;;;4969494;28;20177;-66
2023/05/09 09:06:22;;;;;;;2.08;1.50;;;20.90;99.90;;;;;;4965351;28;20264;-67
2023/05/09 09:08:49;;;;;;;3.50;1.60;;;21.10;99.90;;;;;;4953737;28;20201;-67
2023/05/09 09:11:16;;;;;;;2.13;1.77;;;21.10;99.90;;;;;;4967923;28;20253;-67
2023/05/09 09:13:45;;;;;;;2.17;1.45;;;21.20;99.90;;;;;;4954238;28;20188;-65
2023/05/09 09:16:19;;;;;;;2.67;1.80;;;21.30;99.90;;;;;;4952597;28;20195;-65
2023/05/09 09:18:53;;;;;;;2.17;1.77;;;21.30;99.90;;;;;;4951313;28;20197;-65
2023/05/09 09:21:22;;;;;;;2.47;1.73;;;21.40;99.90;;;;;;4967903;28;20232;-66
2023/05/09 09:23:48;;;;;;;1.73;1.63;;;21.50;99.90;;;;;;4953179;28;20172;-66
2023/05/09 09:26:17;;;;;;;1.63;1.52;;;21.50;99.90;;;;;;4953988;29;20176;-65
2023/05/09 09:28:42;;;;;;;1.73;1.63;;;21.60;99.90;;;;;;4966421;28;20275;-64
2023/05/09 09:31:21;;;;;;;2.50;1.70;;;21.60;99.90;;;;;;4969997;28;20268;-66
2023/05/09 09:33:48;;;;;;;1.60;1.50;;;21.70;99.90;;;;;;4950451;29;20267;-66
2023/05/09 09:36:13;;;;;;;1.40;1.30;;;21.70;99.90;;;;;;4955862;28;20180;-64
2023/05/09 09:38:42;;;;;;;1.30;1.15;;;21.80;99.90;;;;;;4952018;28;20208;-64
2023/05/09 09:41:14;;;;;;;2.58;1.70;;;21.80;99.90;;;;;;4952016;29;20191;-65
2023/05/09 09:43:45;;;;;;;2.92;2.03;;;21.90;99.90;;;;;;4968220;28;20743;-63
2023/05/09 09:46:16;;;;;;;1.63;1.52;;;22.00;99.90;;;;;;4969319;28;20240;-65
2023/05/09 09:48:51;;;;;;;3.38;1.77;;;22.10;99.90;;;;;;4955209;28;20200;-65
2023/05/09 09:51:17;;;;;;;1.63;1.52;;;22.20;99.90;;;;;;4958444;28;20184;-64
2023/05/09 09:53:43;;;;;;;2.90;1.77;;;22.40;99.90;;;;;;4956832;28;20188;-66
2023/05/09 09:56:09;;;;;;;2.17;1.70;;;22.50;99.90;;;;;;4952532;28;20200;-66
2023/05/09 09:58:38;;;;;;;1.60;1.40;;;22.70;99.90;;;;;;4957628;28;20208;-66
2023/05/09 10:01:08;;;;;;;3.05;1.70;;;22.80;99.90;;;;;;4964548;28;20357;-64
2023/05/09 10:03:45;;;;;;;2.10;1.67;;;22.90;99.90;;;;;;4965982;28;20181;-65
2023/05/09 10:06:17;;;;;;;2.42;1.70;;;23.10;99.90;;;;;;4951787;29;20236;-62
2023/05/09 10:08:47;;;;;;;1.60;1.50;;;23.20;99.90;;;;;;4965715;28;20200;-66
2023/05/09 10:11:14;;;;;;;2.08;1.73;;;23.30;99.90;;;;;;4965519;28;20184;-66
2023/05/09 10:13:41;;;;;;;1.55;1.45;;;23.40;99.90;;;;;;4953992;28;20339;-66
2023/05/09 10:16:10;;;;;;;1.60;1.50;;;23.50;99.90;;;;;;4964665;28;20207;-61
2023/05/09 10:18:36;;;;;;;2.22;1.65;;;23.50;99.90;;;;;;4953940;29;20212;-67
2023/05/09 10:21:08;;;;;;;2.97;1.83;;;23.60;99.90;;;;;;4967015;28;20282;-66
2023/05/09 10:23:41;;;;;;;1.70;1.60;;;23.70;99.90;;;;;;4967147;28;20243;-65
2023/05/09 10:26:27;;;;;;;2.45;1.50;;;23.70;99.90;;;;;;4965917;28;20236;-66
2023/05/09 10:28:56;;;;;;;3.15;1.70;;;23.80;99.90;;;;;;4963243;28;20195;-66
2023/05/09 10:31:25;;;;;;;1.70;1.60;;;23.80;99.90;;;;;;4956023;28;20191;-67
2023/05/09 10:33:57;;;;;;;3.70;1.60;;;23.80;99.90;;;;;;4972152;28;20188;-64
2023/05/09 10:36:23;;;;;;;2.30;1.70;;;23.80;99.90;;;;;;4971912;28;20213;-65
2023/05/09 10:38:52;;;;;;;2.97;1.70;;;23.70;99.90;;;;;;4971950;28;20211;-66
2023/05/09 10:41:20;;;;;;;1.80;1.70;;;23.60;99.90;;;;;;4971639;28;20187;-65
2023/05/09 10:43:48;;;;;;;2.28;1.67;;;23.50;99.90;;;;;;4966686;28;20196;-66
2023/05/09 10:46:15;;;;;;;1.50;1.40;;;23.40;99.90;;;;;;4953796;29;20189;-67
2023/05/09 10:48:43;;;;;;;2.22;1.70;;;23.30;99.90;;;;;;4947979;29;20268;-66
2023/05/09 10:51:10;;;;;;;1.70;1.60;;;23.30;99.90;;;;;;4952863;28;20268;-66
2023/05/09 10:53:47;;;;;;;2.10;1.58;;;23.30;99.90;;;;;;4960770;28;20200;-66
2023/05/09 10:56:25;;;;;;;2.03;1.73;;;23.20;99.90;;;;;;4936535;29;20176;-65
2023/05/09 10:58:56;;;;;;;2.20;1.70;;;23.20;99.90;;;;;;4951276;28;20224;-65
2023/05/09 11:01:31;;;;;;;3.97;1.90;;;23.20;99.90;;;;;;4971554;28;20168;-67
2023/05/09 11:04:00;;;;;;;2.38;2.00;;;23.20;99.90;;;;;;4965093;28;20209;-65
2023/05/09 11:06:51;;;;;;;1.60;1.50;;;23.30;99.90;;;;;;4966990;28;20200;-67
2023/05/09 11:09:33;;;;;;;2.42;1.70;;;23.30;99.90;;;;;;4944383;29;20208;-67
2023/05/09 11:12:12;;;;;;;1.80;1.70;;;23.40;99.90;;;;;;4949209;29;20188;-65
2023/05/09 11:14:54;;;;;;;1.73;1.60;;;23.50;99.90;;;;;;4966056;28;20236;-67
2023/05/09 11:17:23;;;;;;;2.40;1.60;;;23.70;99.90;;;;;;4952837;28;20204;-67
2023/05/09 11:19:49;;;;;;;1.60;1.50;;;23.70;99.90;;;;;;4965575;28;20239;-66
2023/05/09 11:22:31;;;;;;;1.95;1.52;;;23.80;99.90;;;;;;4967381;28;20212;-67
2023/05/09 11:25:09;;;;;;;1.85;1.63;;;23.90;99.90;;;;;;4951713;28;20296;-67
2023/05/09 11:27:44;;;;;;;1.70;1.50;;;23.90;99.90;;;;;;4946333;29;20243;-67
2023/05/09 11:30:13;;;;;;;1.60;1.50;;;23.90;99.90;;;;;;4968321;28;20195;-64
2023/05/09 11:32:43;;;;;;;1.60;1.50;;;24.00;99.90;;;;;;4950689;29;20177;-67
2023/05/09 11:35:14;;;;;;;1.40;1.30;;;24.00;99.90;;;;;;4968460;28;20177;-67
2023/05/09 11:37:53;;;;;;;1.80;1.40;;;24.10;99.90;;;;;;4966713;28;20216;-67
2023/05/09 11:40:20;;;;;;;1.40;1.27;;;24.20;99.90;;;;;;4965651;28;20252;-65
2023/05/09 11:42:48;;;;;;;1.98;1.50;;;24.30;99.90;;;;;;4966868;28;20182;-65
2023/05/09 11:45:17;;;;;;;1.90;1.52;;;24.50;99.90;;;;;;4949142;29;20200;-64
2023/05/09 11:47:43;;;;;;;2.45;1.60;;;24.70;99.90;;;;;;4969209;28;20176;-67
2023/05/09 11:50:12;;;;;;;1.88;1.50;;;24.80;99.90;;;;;;4969773;28;20192;-67
2023/05/09 11:52:38;;;;;;;2.42;1.27;;;24.90;99.90;;;;;;4963270;28;20193;-65
2023/05/09 11:55:17;;;;;;;1.42;1.30;;;24.90;99.90;;;;;;4969622;28;20199;-67
2023/05/09 11:57:47;;;;;;;1.30;1.20;;;24.90;99.90;;;;;;4968446;28;20211;-67
2023/05/09 12:00:27;;;;;;;1.45;1.15;;;25.00;99.90;;;;;;4967487;28;20276;-67
2023/05/09 12:02:53;;;;;;;2.25;1.65;;;25.00;99.90;;;;;;4969955;28;20272;-65
2023/05/09 12:05:22;;;;;;;1.52;1.42;;;24.90;99.90;;;;;;4957553;28;20292;-66
2023/05/09 12:07:48;;;;;;;1.20;1.10;;;24.90;99.90;;;;;;4962411;28;20191;-67
2023/05/09 12:10:20;;;;;;;1.33;1.23;;;24.70;99.90;;;;;;4955032;29;20181;-66
2023/05/09 12:12:47;;;;;;;1.30;1.20;;;24.70;99.90;;;;;;4953381;28;20279;-65
2023/05/09 12:15:14;;;;;;;1.75;1.23;;;24.70;99.90;;;;;;4957814;28;20263;-66
2023/05/09 12:17:43;;;;;;;1.30;1.20;;;24.70;99.90;;;;;;4969514;28;20236;-64
2023/05/09 12:20:12;;;;;;;1.42;1.33;;;24.80;99.90;;;;;;4953694;29;20272;-65
2023/05/09 12:22:41;;;;;;;2.65;2.15;;;24.80;99.90;;;;;;4958904;28;20311;-67
2023/05/09 12:25:09;;;;;;;1.83;1.63;;;24.80;99.90;;;;;;4969707;28;20350;-66
2023/05/09 12:27:36;;;;;;;1.95;1.60;;;24.80;99.90;;;;;;4955917;28;20415;-66
2023/05/09 12:30:07;;;;;;;2.03;1.30;;;24.70;99.90;;;;;;4963427;28;20184;-66
2023/05/09 12:32:38;;;;;;;1.48;1.00;;;24.70;99.90;;;;;;4975043;28;20196;-66
2023/05/09 12:35:04;;;;;;;1.25;1.10;;;24.60;99.90;;;;;;4970807;28;20197;-67
2023/05/09 12:37:34;;;;;;;1.17;1.00;;;24.50;99.90;;;;;;4952880;29;20201;-67
2023/05/09 12:40:02;;;;;;;1.20;1.00;;;24.50;99.90;;;;;;4955443;29;20169;-67
2023/05/09 12:42:29;;;;;;;1.30;1.10;;;24.50;99.90;;;;;;4967310;28;20235;-67
2023/05/09 12:44:55;;;;;;;1.73;1.10;;;24.40;99.90;;;;;;4973168;28;20235;-67